sensor_id;sensor_type;location;lat;lon;timestamp;P1;durP1;ratioP1;P2;durP2;ratioP2
14738;SDS011;7461;52.440;13.540;2022-08-19T00:01:31;27.55;;;25.98;;
14738;SDS011;7461;52.440;13.540;2022-08-19T00:04:01;27.98;;;26.25;;
14738;SDS011;7461;52.440;13.540;2022-08-19T00:06:30;25.80;;;24.33;;
14738;SDS011;7461;52.440;13.540;2022-08-19T00:08:58;27.70;;;26.08;;
14738;SDS011;7461;52.440;13.540;2022-08-19T00:11:27;25.80;;;24.02;;
14738;SDS011;7461;52.440;13.540;2022-08-19T00:13:55;26.38;;;24.88;;
14738;SDS011;7461;52.440;13.540;2022-08-19T00:16:22;26.23;;;24.67;;
14738;SDS011;7461;52.440;13.540;2022-08-19T00:18:50;25.63;;;24.00;;
14738;SDS011;7461;52.440;13.540;2022-08-19T00:21:17;26.20;;;24.65;;
14738;SDS011;7461;52.440;13.540;2022-08-19T00:23:44;27.23;;;25.42;;
14738;SDS011;7461;52.440;13.540;2022-08-19T00:26:11;24.83;;;23.42;;
14738;SDS011;7461;52.440;13.540;2022-08-19T00:28:39;24.02;;;22.73;;
14738;SDS011;7461;52.440;13.540;2022-08-19T00:31:07;24.92;;;23.52;;
14738;SDS011;7461;52.440;13.540;2022-08-19T00:33:35;25.27;;;23.70;;
14738;SDS011;7461;52.440;13.540;2022-08-19T00:36:03;24.98;;;23.63;;
14738;SDS011;7461;52.440;13.540;2022-08-19T00:38:31;25.80;;;24.20;;
14738;SDS011;7461;52.440;13.540;2022-08-19T00:40:59;24.77;;;23.38;;
14738;SDS011;7461;52.440;13.540;2022-08-19T00:43:26;23.95;;;22.58;;
14738;SDS011;7461;52.440;13.540;2022-08-19T00:45:55;23.73;;;22.23;;
14738;SDS011;7461;52.440;13.540;2022-08-19T00:48:22;23.65;;;22.23;;
14738;SDS011;7461;52.440;13.540;2022-08-19T00:50:49;26.80;;;25.10;;
14738;SDS011;7461;52.440;13.540;2022-08-19T00:53:18;26.45;;;24.65;;
14738;SDS011;7461;52.440;13.540;2022-08-19T00:55:49;25.35;;;23.90;;
14738;SDS011;7461;52.440;13.540;2022-08-19T00:58:19;25.83;;;24.25;;
14738;SDS011;7461;52.440;13.540;2022-08-19T01:00:48;25.52;;;23.98;;
14738;SDS011;7461;52.440;13.540;2022-08-19T01:03:18;24.85;;;23.48;;
14738;SDS011;7461;52.440;13.540;2022-08-19T01:05:46;24.67;;;23.27;;
14738;SDS011;7461;52.440;13.540;2022-08-19T01:08:15;26.77;;;25.20;;
14738;SDS011;7461;52.440;13.540;2022-08-19T01:10:46;24.30;;;22.95;;
14738;SDS011;7461;52.440;13.540;2022-08-19T01:13:15;25.48;;;23.88;;
14738;SDS011;7461;52.440;13.540;2022-08-19T01:15:43;26.80;;;25.15;;
14738;SDS011;7461;52.440;13.540;2022-08-19T01:18:14;27.35;;;25.35;;
14738;SDS011;7461;52.440;13.540;2022-08-19T01:20:43;29.33;;;27.25;;
14738;SDS011;7461;52.440;13.540;2022-08-19T01:23:13;26.13;;;24.35;;
14738;SDS011;7461;52.440;13.540;2022-08-19T01:25:44;27.60;;;25.77;;
14738;SDS011;7461;52.440;13.540;2022-08-19T01:28:15;27.90;;;26.17;;
14738;SDS011;7461;52.440;13.540;2022-08-19T01:30:43;28.23;;;26.52;;
14738;SDS011;7461;52.440;13.540;2022-08-19T01:33:11;29.50;;;27.42;;
14738;SDS011;7461;52.440;13.540;2022-08-19T01:35:38;31.20;;;28.98;;
14738;SDS011;7461;52.440;13.540;2022-08-19T01:38:06;30.20;;;28.30;;
14738;SDS011;7461;52.440;13.540;2022-08-19T01:40:37;30.80;;;28.75;;
14738;SDS011;7461;52.440;13.540;2022-08-19T01:43:07;31.50;;;29.30;;
14738;SDS011;7461;52.440;13.540;2022-08-19T01:45:34;29.85;;;27.73;;
14738;SDS011;7461;52.440;13.540;2022-08-19T01:48:02;28.38;;;26.33;;
14738;SDS011;7461;52.440;13.540;2022-08-19T01:50:30;24.65;;;23.15;;
14738;SDS011;7461;52.440;13.540;2022-08-19T01:52:58;24.40;;;22.80;;
14738;SDS011;7461;52.440;13.540;2022-08-19T01:55:26;24.98;;;23.40;;
14738;SDS011;7461;52.440;13.540;2022-08-19T01:57:55;27.13;;;25.33;;
14738;SDS011;7461;52.440;13.540;2022-08-19T02:00:26;27.58;;;25.95;;
14738;SDS011;7461;52.440;13.540;2022-08-19T02:02:55;28.08;;;26.30;;
14738;SDS011;7461;52.440;13.540;2022-08-19T02:05:22;30.63;;;28.55;;
14738;SDS011;7461;52.440;13.540;2022-08-19T02:07:50;27.45;;;25.75;;
14738;SDS011;7461;52.440;13.540;2022-08-19T02:10:18;26.98;;;25.27;;
14738;SDS011;7461;52.440;13.540;2022-08-19T02:12:46;29.33;;;27.10;;
14738;SDS011;7461;52.440;13.540;2022-08-19T02:15:16;28.33;;;26.40;;
14738;SDS011;7461;52.440;13.540;2022-08-19T02:17:45;27.88;;;26.08;;
14738;SDS011;7461;52.440;13.540;2022-08-19T02:20:12;26.45;;;24.85;;
14738;SDS011;7461;52.440;13.540;2022-08-19T02:22:39;31.13;;;28.80;;
14738;SDS011;7461;52.440;13.540;2022-08-19T02:25:07;28.40;;;26.52;;
14738;SDS011;7461;52.440;13.540;2022-08-19T02:27:35;27.40;;;25.60;;
14738;SDS011;7461;52.440;13.540;2022-08-19T02:30:03;26.17;;;24.48;;
14738;SDS011;7461;52.440;13.540;2022-08-19T02:32:32;26.05;;;24.40;;
14738;SDS011;7461;52.440;13.540;2022-08-19T02:34:59;27.00;;;25.23;;
14738;SDS011;7461;52.440;13.540;2022-08-19T02:37:26;26.75;;;25.05;;
14738;SDS011;7461;52.440;13.540;2022-08-19T02:40:10;24.75;;;23.15;;
14738;SDS011;7461;52.440;13.540;2022-08-19T02:42:38;25.17;;;23.58;;
14738;SDS011;7461;52.440;13.540;2022-08-19T02:45:08;25.83;;;23.77;;
14738;SDS011;7461;52.440;13.540;2022-08-19T02:47:37;26.50;;;24.90;;
14738;SDS011;7461;52.440;13.540;2022-08-19T02:50:04;29.23;;;27.15;;
14738;SDS011;7461;52.440;13.540;2022-08-19T02:52:32;29.02;;;27.02;;
14738;SDS011;7461;52.440;13.540;2022-08-19T02:55:00;31.50;;;29.30;;
14738;SDS011;7461;52.440;13.540;2022-08-19T02:57:27;29.98;;;28.00;;
14738;SDS011;7461;52.440;13.540;2022-08-19T02:59:56;30.90;;;28.65;;
14738;SDS011;7461;52.440;13.540;2022-08-19T03:02:23;33.17;;;30.67;;
14738;SDS011;7461;52.440;13.540;2022-08-19T03:04:51;33.85;;;31.38;;
14738;SDS011;7461;52.440;13.540;2022-08-19T03:07:18;33.47;;;30.98;;
14738;SDS011;7461;52.440;13.540;2022-08-19T03:09:45;35.33;;;32.72;;
14738;SDS011;7461;52.440;13.540;2022-08-19T03:12:12;36.47;;;33.88;;
14738;SDS011;7461;52.440;13.540;2022-08-19T03:14:39;36.28;;;33.90;;
14738;SDS011;7461;52.440;13.540;2022-08-19T03:17:06;36.78;;;34.30;;
14738;SDS011;7461;52.440;13.540;2022-08-19T03:19:33;37.30;;;34.72;;
14738;SDS011;7461;52.440;13.540;2022-08-19T03:22:01;35.53;;;33.05;;
14738;SDS011;7461;52.440;13.540;2022-08-19T03:24:29;38.10;;;35.38;;
14738;SDS011;7461;52.440;13.540;2022-08-19T03:26:56;39.13;;;36.22;;
14738;SDS011;7461;52.440;13.540;2022-08-19T03:29:24;38.08;;;35.42;;
14738;SDS011;7461;52.440;13.540;2022-08-19T03:31:52;39.63;;;36.58;;
14738;SDS011;7461;52.440;13.540;2022-08-19T03:34:21;36.53;;;33.75;;
14738;SDS011;7461;52.440;13.540;2022-08-19T03:36:51;40.28;;;37.28;;
14738;SDS011;7461;52.440;13.540;2022-08-19T03:39:20;38.28;;;35.70;;
14738;SDS011;7461;52.440;13.540;2022-08-19T03:41:48;35.88;;;33.20;;
14738;SDS011;7461;52.440;13.540;2022-08-19T03:44:17;37.60;;;35.08;;
14738;SDS011;7461;52.440;13.540;2022-08-19T03:46:46;36.38;;;33.80;;
14738;SDS011;7461;52.440;13.540;2022-08-19T03:49:14;36.92;;;34.20;;
14738;SDS011;7461;52.440;13.540;2022-08-19T03:51:41;35.15;;;32.95;;
14738;SDS011;7461;52.440;13.540;2022-08-19T03:54:09;37.13;;;34.45;;
14738;SDS011;7461;52.440;13.540;2022-08-19T03:56:39;37.47;;;34.83;;
14738;SDS011;7461;52.440;13.540;2022-08-19T03:59:08;37.53;;;34.53;;
14738;SDS011;7461;52.440;13.540;2022-08-19T04:01:36;37.85;;;35.00;;
14738;SDS011;7461;52.440;13.540;2022-08-19T04:04:03;38.05;;;35.40;;
14738;SDS011;7461;52.440;13.540;2022-08-19T04:06:31;37.53;;;34.88;;
14738;SDS011;7461;52.440;13.540;2022-08-19T04:09:00;39.67;;;36.67;;
14738;SDS011;7461;52.440;13.540;2022-08-19T04:11:30;38.40;;;35.67;;
14738;SDS011;7461;52.440;13.540;2022-08-19T04:14:02;39.03;;;36.30;;
14738;SDS011;7461;52.440;13.540;2022-08-19T04:16:29;39.28;;;36.30;;
14738;SDS011;7461;52.440;13.540;2022-08-19T04:18:56;40.95;;;37.60;;
14738;SDS011;7461;52.440;13.540;2022-08-19T04:21:26;39.88;;;36.88;;
14738;SDS011;7461;52.440;13.540;2022-08-19T04:23:54;41.40;;;38.40;;
14738;SDS011;7461;52.440;13.540;2022-08-19T04:26:22;42.17;;;38.97;;
14738;SDS011;7461;52.440;13.540;2022-08-19T04:28:51;42.80;;;39.80;;
14738;SDS011;7461;52.440;13.540;2022-08-19T04:31:21;40.35;;;37.45;;
14738;SDS011;7461;52.440;13.540;2022-08-19T04:33:51;43.15;;;39.75;;
14738;SDS011;7461;52.440;13.540;2022-08-19T04:36:19;41.60;;;38.50;;
14738;SDS011;7461;52.440;13.540;2022-08-19T04:38:48;41.42;;;38.40;;
14738;SDS011;7461;52.440;13.540;2022-08-19T04:41:16;43.25;;;40.05;;
14738;SDS011;7461;52.440;13.540;2022-08-19T04:44:00;40.85;;;37.63;;
14738;SDS011;7461;52.440;13.540;2022-08-19T04:46:29;41.05;;;37.80;;
14738;SDS011;7461;52.440;13.540;2022-08-19T04:48:57;39.50;;;36.78;;
14738;SDS011;7461;52.440;13.540;2022-08-19T04:51:24;40.65;;;37.55;;
14738;SDS011;7461;52.440;13.540;2022-08-19T04:53:51;39.72;;;36.92;;
14738;SDS011;7461;52.440;13.540;2022-08-19T04:56:18;41.65;;;38.90;;
14738;SDS011;7461;52.440;13.540;2022-08-19T04:58:47;41.83;;;38.75;;
14738;SDS011;7461;52.440;13.540;2022-08-19T05:01:17;43.50;;;40.10;;
14738;SDS011;7461;52.440;13.540;2022-08-19T05:03:46;42.58;;;39.35;;
14738;SDS011;7461;52.440;13.540;2022-08-19T05:06:15;42.47;;;39.22;;
14738;SDS011;7461;52.440;13.540;2022-08-19T05:08:44;42.22;;;39.28;;
14738;SDS011;7461;52.440;13.540;2022-08-19T05:11:12;45.20;;;41.65;;
14738;SDS011;7461;52.440;13.540;2022-08-19T05:13:41;44.45;;;41.08;;
14738;SDS011;7461;52.440;13.540;2022-08-19T05:16:09;45.88;;;42.60;;
14738;SDS011;7461;52.440;13.540;2022-08-19T05:18:37;41.50;;;38.50;;
14738;SDS011;7461;52.440;13.540;2022-08-19T05:21:23;43.85;;;40.50;;
14738;SDS011;7461;52.440;13.540;2022-08-19T05:24:08;43.15;;;40.22;;
14738;SDS011;7461;52.440;13.540;2022-08-19T05:26:35;43.95;;;40.80;;
14738;SDS011;7461;52.440;13.540;2022-08-19T05:29:02;42.70;;;39.50;;
14738;SDS011;7461;52.440;13.540;2022-08-19T05:31:31;43.60;;;40.17;;
14738;SDS011;7461;52.440;13.540;2022-08-19T05:33:58;43.40;;;40.13;;
14738;SDS011;7461;52.440;13.540;2022-08-19T05:36:26;44.72;;;41.40;;
14738;SDS011;7461;52.440;13.540;2022-08-19T05:38:55;45.80;;;42.47;;
14738;SDS011;7461;52.440;13.540;2022-08-19T05:41:22;44.05;;;40.55;;
14738;SDS011;7461;52.440;13.540;2022-08-19T05:43:54;43.00;;;40.05;;
14738;SDS011;7461;52.440;13.540;2022-08-19T05:46:21;43.85;;;40.53;;
14738;SDS011;7461;52.440;13.540;2022-08-19T05:48:48;43.92;;;40.75;;
14738;SDS011;7461;52.440;13.540;2022-08-19T05:51:15;43.30;;;40.13;;
14738;SDS011;7461;52.440;13.540;2022-08-19T05:53:43;42.83;;;39.72;;
14738;SDS011;7461;52.440;13.540;2022-08-19T05:56:16;44.92;;;41.92;;
14738;SDS011;7461;52.440;13.540;2022-08-19T05:58:48;44.53;;;41.30;;
14738;SDS011;7461;52.440;13.540;2022-08-19T06:01:16;44.85;;;41.72;;
14738;SDS011;7461;52.440;13.540;2022-08-19T06:03:44;44.72;;;41.65;;
14738;SDS011;7461;52.440;13.540;2022-08-19T06:06:13;45.67;;;42.42;;
14738;SDS011;7461;52.440;13.540;2022-08-19T06:08:41;43.17;;;40.22;;
14738;SDS011;7461;52.440;13.540;2022-08-19T06:11:15;43.55;;;40.47;;
14738;SDS011;7461;52.440;13.540;2022-08-19T06:13:45;45.45;;;42.03;;
14738;SDS011;7461;52.440;13.540;2022-08-19T06:16:16;44.60;;;41.60;;
14738;SDS011;7461;52.440;13.540;2022-08-19T06:18:47;44.55;;;41.25;;
14738;SDS011;7461;52.440;13.540;2022-08-19T06:21:16;48.88;;;45.25;;
14738;SDS011;7461;52.440;13.540;2022-08-19T06:23:44;48.20;;;44.80;;
14738;SDS011;7461;52.440;13.540;2022-08-19T06:26:11;46.80;;;43.40;;
14738;SDS011;7461;52.440;13.540;2022-08-19T06:28:39;48.70;;;45.20;;
14738;SDS011;7461;52.440;13.540;2022-08-19T06:31:08;47.65;;;44.17;;
14738;SDS011;7461;52.440;13.540;2022-08-19T06:33:35;49.47;;;46.03;;
14738;SDS011;7461;52.440;13.540;2022-08-19T06:36:02;50.22;;;46.58;;
14738;SDS011;7461;52.440;13.540;2022-08-19T06:38:30;49.92;;;46.50;;
14738;SDS011;7461;52.440;13.540;2022-08-19T06:41:00;47.85;;;44.45;;
14738;SDS011;7461;52.440;13.540;2022-08-19T06:43:27;50.83;;;47.05;;
14738;SDS011;7461;52.440;13.540;2022-08-19T06:45:56;50.33;;;46.92;;
14738;SDS011;7461;52.440;13.540;2022-08-19T06:48:24;48.97;;;45.35;;
14738;SDS011;7461;52.440;13.540;2022-08-19T06:50:51;52.38;;;48.78;;
14738;SDS011;7461;52.440;13.540;2022-08-19T06:53:18;53.38;;;49.88;;
14738;SDS011;7461;52.440;13.540;2022-08-19T06:55:45;48.03;;;44.42;;
14738;SDS011;7461;52.440;13.540;2022-08-19T06:58:12;48.75;;;45.28;;
14738;SDS011;7461;52.440;13.540;2022-08-19T07:00:39;47.97;;;44.75;;
14738;SDS011;7461;52.440;13.540;2022-08-19T07:03:07;45.90;;;42.75;;
14738;SDS011;7461;52.440;13.540;2022-08-19T07:05:39;49.17;;;45.65;;
14738;SDS011;7461;52.440;13.540;2022-08-19T07:08:06;51.92;;;48.17;;
14738;SDS011;7461;52.440;13.540;2022-08-19T07:10:34;48.97;;;45.72;;
14738;SDS011;7461;52.440;13.540;2022-08-19T07:13:01;49.83;;;46.58;;
14738;SDS011;7461;52.440;13.540;2022-08-19T07:15:28;50.25;;;46.63;;
14738;SDS011;7461;52.440;13.540;2022-08-19T07:17:55;52.28;;;48.50;;
14738;SDS011;7461;52.440;13.540;2022-08-19T07:20:24;50.33;;;46.90;;
14738;SDS011;7461;52.440;13.540;2022-08-19T07:22:51;51.25;;;47.90;;
14738;SDS011;7461;52.440;13.540;2022-08-19T07:25:21;51.90;;;48.40;;
14738;SDS011;7461;52.440;13.540;2022-08-19T07:27:48;52.08;;;48.70;;
14738;SDS011;7461;52.440;13.540;2022-08-19T07:30:15;52.80;;;49.15;;
14738;SDS011;7461;52.440;13.540;2022-08-19T07:32:42;54.75;;;51.10;;
14738;SDS011;7461;52.440;13.540;2022-08-19T07:35:09;52.22;;;48.65;;
14738;SDS011;7461;52.440;13.540;2022-08-19T07:37:37;53.75;;;49.95;;
14738;SDS011;7461;52.440;13.540;2022-08-19T07:40:09;49.25;;;45.95;;
14738;SDS011;7461;52.440;13.540;2022-08-19T07:42:36;52.58;;;49.08;;
14738;SDS011;7461;52.440;13.540;2022-08-19T07:45:03;54.85;;;51.28;;
14738;SDS011;7461;52.440;13.540;2022-08-19T07:47:31;53.17;;;49.63;;
14738;SDS011;7461;52.440;13.540;2022-08-19T07:49:58;50.67;;;47.17;;
14738;SDS011;7461;52.440;13.540;2022-08-19T07:52:25;51.35;;;47.95;;
14738;SDS011;7461;52.440;13.540;2022-08-19T07:54:54;52.92;;;49.38;;
14738;SDS011;7461;52.440;13.540;2022-08-19T07:57:21;50.33;;;47.10;;
14738;SDS011;7461;52.440;13.540;2022-08-19T07:59:48;50.53;;;47.13;;
14738;SDS011;7461;52.440;13.540;2022-08-19T08:02:15;52.17;;;48.67;;
14738;SDS011;7461;52.440;13.540;2022-08-19T08:04:41;49.72;;;46.38;;
14738;SDS011;7461;52.440;13.540;2022-08-19T08:07:25;49.28;;;46.10;;
14738;SDS011;7461;52.440;13.540;2022-08-19T08:10:11;50.42;;;47.10;;
14738;SDS011;7461;52.440;13.540;2022-08-19T08:12:38;52.28;;;48.90;;
14738;SDS011;7461;52.440;13.540;2022-08-19T08:15:07;54.83;;;50.90;;
14738;SDS011;7461;52.440;13.540;2022-08-19T08:17:36;53.78;;;50.08;;
14738;SDS011;7461;52.440;13.540;2022-08-19T08:20:04;52.63;;;48.95;;
14738;SDS011;7461;52.440;13.540;2022-08-19T08:22:32;52.92;;;49.35;;
14738;SDS011;7461;52.440;13.540;2022-08-19T08:25:19;55.55;;;51.88;;
14738;SDS011;7461;52.440;13.540;2022-08-19T08:27:47;56.17;;;52.47;;
14738;SDS011;7461;52.440;13.540;2022-08-19T08:30:15;54.72;;;50.95;;
14738;SDS011;7461;52.440;13.540;2022-08-19T08:32:44;55.58;;;51.88;;
14738;SDS011;7461;52.440;13.540;2022-08-19T08:35:12;55.53;;;51.92;;
14738;SDS011;7461;52.440;13.540;2022-08-19T08:37:40;55.85;;;52.15;;
14738;SDS011;7461;52.440;13.540;2022-08-19T08:40:09;57.80;;;54.20;;
14738;SDS011;7461;52.440;13.540;2022-08-19T08:42:47;62.53;;;58.42;;
14738;SDS011;7461;52.440;13.540;2022-08-19T08:45:20;145.63;;;136.65;;
14738;SDS011;7461;52.440;13.540;2022-08-19T08:47:50;67.43;;;63.53;;
14738;SDS011;7461;52.440;13.540;2022-08-19T08:50:21;55.42;;;51.95;;
14738;SDS011;7461;52.440;13.540;2022-08-19T08:52:55;52.25;;;48.95;;
14738;SDS011;7461;52.440;13.540;2022-08-19T08:55:25;55.10;;;51.35;;
14738;SDS011;7461;52.440;13.540;2022-08-19T08:57:58;52.97;;;49.65;;
14738;SDS011;7461;52.440;13.540;2022-08-19T09:00:28;51.60;;;48.55;;
14738;SDS011;7461;52.440;13.540;2022-08-19T09:02:59;48.00;;;45.28;;
14738;SDS011;7461;52.440;13.540;2022-08-19T09:05:30;50.28;;;47.28;;
14738;SDS011;7461;52.440;13.540;2022-08-19T09:08:08;53.97;;;50.97;;
14738;SDS011;7461;52.440;13.540;2022-08-19T09:10:43;49.22;;;46.35;;
14738;SDS011;7461;52.440;13.540;2022-08-19T09:13:17;49.83;;;46.78;;
14738;SDS011;7461;52.440;13.540;2022-08-19T09:15:52;50.83;;;47.83;;
14738;SDS011;7461;52.440;13.540;2022-08-19T09:18:23;45.72;;;43.15;;
14738;SDS011;7461;52.440;13.540;2022-08-19T09:20:50;44.30;;;41.88;;
14738;SDS011;7461;52.440;13.540;2022-08-19T09:23:17;47.40;;;44.70;;
14738;SDS011;7461;52.440;13.540;2022-08-19T09:25:44;46.80;;;43.97;;
14738;SDS011;7461;52.440;13.540;2022-08-19T09:28:11;44.35;;;41.92;;
14738;SDS011;7461;52.440;13.540;2022-08-19T09:30:40;43.85;;;41.45;;
14738;SDS011;7461;52.440;13.540;2022-08-19T09:33:08;42.55;;;40.22;;
14738;SDS011;7461;52.440;13.540;2022-08-19T09:35:35;45.13;;;42.55;;
14738;SDS011;7461;52.440;13.540;2022-08-19T09:38:01;42.22;;;39.80;;
14738;SDS011;7461;52.440;13.540;2022-08-19T09:40:29;43.45;;;40.80;;
14738;SDS011;7461;52.440;13.540;2022-08-19T09:42:57;42.92;;;40.63;;
14738;SDS011;7461;52.440;13.540;2022-08-19T09:45:25;43.75;;;41.08;;
14738;SDS011;7461;52.440;13.540;2022-08-19T09:47:53;43.55;;;41.05;;
14738;SDS011;7461;52.440;13.540;2022-08-19T09:50:21;44.92;;;42.33;;
14738;SDS011;7461;52.440;13.540;2022-08-19T09:52:49;46.15;;;43.45;;
14738;SDS011;7461;52.440;13.540;2022-08-19T09:55:18;48.75;;;45.92;;
14738;SDS011;7461;52.440;13.540;2022-08-19T09:57:45;127.82;;;120.00;;
14738;SDS011;7461;52.440;13.540;2022-08-19T10:00:13;63.95;;;60.25;;
14738;SDS011;7461;52.440;13.540;2022-08-19T10:02:40;48.88;;;46.17;;
14738;SDS011;7461;52.440;13.540;2022-08-19T10:05:09;44.33;;;41.92;;
14738;SDS011;7461;52.440;13.540;2022-08-19T10:07:53;48.30;;;45.58;;
14738;SDS011;7461;52.440;13.540;2022-08-19T10:10:20;44.90;;;42.30;;
14738;SDS011;7461;52.440;13.540;2022-08-19T10:12:47;45.83;;;43.15;;
14738;SDS011;7461;52.440;13.540;2022-08-19T10:15:14;44.20;;;41.90;;
14738;SDS011;7461;52.440;13.540;2022-08-19T10:17:41;46.10;;;43.35;;
14738;SDS011;7461;52.440;13.540;2022-08-19T10:20:10;46.17;;;43.58;;
14738;SDS011;7461;52.440;13.540;2022-08-19T10:22:37;44.33;;;41.83;;
14738;SDS011;7461;52.440;13.540;2022-08-19T10:25:05;40.58;;;38.25;;
14738;SDS011;7461;52.440;13.540;2022-08-19T10:27:32;44.75;;;42.25;;
14738;SDS011;7461;52.440;13.540;2022-08-19T10:29:59;43.20;;;40.80;;
14738;SDS011;7461;52.440;13.540;2022-08-19T10:32:26;42.28;;;39.95;;
14738;SDS011;7461;52.440;13.540;2022-08-19T10:34:54;43.15;;;40.83;;
14738;SDS011;7461;52.440;13.540;2022-08-19T10:37:23;40.50;;;38.20;;
14738;SDS011;7461;52.440;13.540;2022-08-19T10:39:50;42.60;;;40.30;;
14738;SDS011;7461;52.440;13.540;2022-08-19T10:42:17;43.53;;;40.95;;
14738;SDS011;7461;52.440;13.540;2022-08-19T10:44:44;41.75;;;39.33;;
14738;SDS011;7461;52.440;13.540;2022-08-19T10:47:13;39.42;;;37.42;;
14738;SDS011;7461;52.440;13.540;2022-08-19T10:49:40;42.13;;;39.53;;
14738;SDS011;7461;52.440;13.540;2022-08-19T10:52:21;39.72;;;37.63;;
14738;SDS011;7461;52.440;13.540;2022-08-19T10:55:02;40.20;;;38.00;;
14738;SDS011;7461;52.440;13.540;2022-08-19T10:57:47;40.22;;;37.80;;
14738;SDS011;7461;52.440;13.540;2022-08-19T11:00:14;38.20;;;36.10;;
14738;SDS011;7461;52.440;13.540;2022-08-19T11:02:41;39.17;;;36.97;;
14738;SDS011;7461;52.440;13.540;2022-08-19T11:05:08;37.28;;;35.28;;
14738;SDS011;7461;52.440;13.540;2022-08-19T11:07:36;38.22;;;36.00;;
14738;SDS011;7461;52.440;13.540;2022-08-19T11:10:06;38.38;;;36.10;;
14738;SDS011;7461;52.440;13.540;2022-08-19T11:12:36;38.25;;;36.20;;
14738;SDS011;7461;52.440;13.540;2022-08-19T11:15:04;36.22;;;34.22;;
14738;SDS011;7461;52.440;13.540;2022-08-19T11:17:32;33.83;;;31.92;;
14738;SDS011;7461;52.440;13.540;2022-08-19T11:19:59;35.25;;;33.35;;
14738;SDS011;7461;52.440;13.540;2022-08-19T11:22:29;33.58;;;31.85;;
14738;SDS011;7461;52.440;13.540;2022-08-19T11:24:56;33.50;;;31.75;;
14738;SDS011;7461;52.440;13.540;2022-08-19T11:27:24;34.58;;;32.58;;
14738;SDS011;7461;52.440;13.540;2022-08-19T11:29:53;33.35;;;31.55;;
14738;SDS011;7461;52.440;13.540;2022-08-19T11:32:20;35.15;;;33.10;;
14738;SDS011;7461;52.440;13.540;2022-08-19T11:34:47;33.10;;;31.40;;
14738;SDS011;7461;52.440;13.540;2022-08-19T11:37:14;32.78;;;31.08;;
14738;SDS011;7461;52.440;13.540;2022-08-19T11:39:41;33.30;;;31.50;;
14738;SDS011;7461;52.440;13.540;2022-08-19T11:42:08;37.88;;;35.83;;
14738;SDS011;7461;52.440;13.540;2022-08-19T11:44:53;33.13;;;31.33;;
14738;SDS011;7461;52.440;13.540;2022-08-19T11:47:20;33.88;;;31.90;;
14738;SDS011;7461;52.440;13.540;2022-08-19T11:49:49;30.33;;;28.73;;
14738;SDS011;7461;52.440;13.540;2022-08-19T11:52:18;31.65;;;29.90;;
14738;SDS011;7461;52.440;13.540;2022-08-19T11:54:44;30.35;;;28.70;;
14738;SDS011;7461;52.440;13.540;2022-08-19T11:57:11;27.45;;;25.95;;
14738;SDS011;7461;52.440;13.540;2022-08-19T11:59:41;29.15;;;27.58;;
14738;SDS011;7461;52.440;13.540;2022-08-19T12:02:10;28.10;;;26.60;;
14738;SDS011;7461;52.440;13.540;2022-08-19T12:04:36;27.88;;;26.48;;
14738;SDS011;7461;52.440;13.540;2022-08-19T12:07:03;26.75;;;25.45;;
14738;SDS011;7461;52.440;13.540;2022-08-19T12:09:31;27.77;;;25.88;;
14738;SDS011;7461;52.440;13.540;2022-08-19T12:11:59;26.98;;;25.58;;
14738;SDS011;7461;52.440;13.540;2022-08-19T12:14:26;28.23;;;26.70;;
14738;SDS011;7461;52.440;13.540;2022-08-19T12:16:55;25.65;;;24.25;;
14738;SDS011;7461;52.440;13.540;2022-08-19T12:19:23;26.10;;;24.50;;
14738;SDS011;7461;52.440;13.540;2022-08-19T12:21:50;26.73;;;25.23;;
14738;SDS011;7461;52.440;13.540;2022-08-19T12:24:20;28.75;;;27.00;;
14738;SDS011;7461;52.440;13.540;2022-08-19T12:26:48;25.02;;;23.63;;
14738;SDS011;7461;52.440;13.540;2022-08-19T12:29:16;25.02;;;23.55;;
14738;SDS011;7461;52.440;13.540;2022-08-19T12:31:43;25.05;;;23.65;;
14738;SDS011;7461;52.440;13.540;2022-08-19T12:34:10;22.80;;;21.60;;
14738;SDS011;7461;52.440;13.540;2022-08-19T12:36:39;25.70;;;24.20;;
14738;SDS011;7461;52.440;13.540;2022-08-19T12:39:05;24.75;;;23.27;;
14738;SDS011;7461;52.440;13.540;2022-08-19T12:41:33;25.42;;;23.88;;
14738;SDS011;7461;52.440;13.540;2022-08-19T12:44:00;25.25;;;23.85;;
14738;SDS011;7461;52.440;13.540;2022-08-19T12:46:27;27.88;;;26.38;;
14738;SDS011;7461;52.440;13.540;2022-08-19T12:48:54;24.83;;;23.60;;
14738;SDS011;7461;52.440;13.540;2022-08-19T12:51:21;23.77;;;22.35;;
14738;SDS011;7461;52.440;13.540;2022-08-19T12:53:49;24.40;;;23.10;;
14738;SDS011;7461;52.440;13.540;2022-08-19T12:56:16;24.05;;;22.75;;
14738;SDS011;7461;52.440;13.540;2022-08-19T12:58:44;22.15;;;21.05;;
14738;SDS011;7461;52.440;13.540;2022-08-19T13:01:12;22.17;;;20.77;;
14738;SDS011;7461;52.440;13.540;2022-08-19T13:03:41;21.35;;;20.25;;
14738;SDS011;7461;52.440;13.540;2022-08-19T13:06:08;20.45;;;19.35;;
14738;SDS011;7461;52.440;13.540;2022-08-19T13:08:35;21.60;;;20.52;;
14738;SDS011;7461;52.440;13.540;2022-08-19T13:11:10;22.52;;;21.27;;
14738;SDS011;7461;52.440;13.540;2022-08-19T13:13:39;21.60;;;20.23;;
14738;SDS011;7461;52.440;13.540;2022-08-19T13:16:06;22.60;;;20.98;;
14738;SDS011;7461;52.440;13.540;2022-08-19T13:18:34;20.55;;;19.45;;
14738;SDS011;7461;52.440;13.540;2022-08-19T13:21:01;20.38;;;19.38;;
14738;SDS011;7461;52.440;13.540;2022-08-19T13:23:30;19.80;;;18.73;;
14738;SDS011;7461;52.440;13.540;2022-08-19T13:25:57;19.48;;;18.48;;
14738;SDS011;7461;52.440;13.540;2022-08-19T13:28:26;20.40;;;19.30;;
14738;SDS011;7461;52.440;13.540;2022-08-19T13:31:14;19.15;;;18.10;;
14738;SDS011;7461;52.440;13.540;2022-08-19T13:33:59;20.08;;;19.08;;
14738;SDS011;7461;52.440;13.540;2022-08-19T13:36:26;20.45;;;19.25;;
14738;SDS011;7461;52.440;13.540;2022-08-19T13:38:53;19.27;;;18.10;;
14738;SDS011;7461;52.440;13.540;2022-08-19T13:41:21;21.10;;;19.90;;
14738;SDS011;7461;52.440;13.540;2022-08-19T13:43:49;20.73;;;19.55;;
14738;SDS011;7461;52.440;13.540;2022-08-19T13:46:16;20.35;;;19.25;;
14738;SDS011;7461;52.440;13.540;2022-08-19T13:48:45;20.42;;;19.40;;
14738;SDS011;7461;52.440;13.540;2022-08-19T13:51:12;20.17;;;18.98;;
14738;SDS011;7461;52.440;13.540;2022-08-19T13:53:42;19.40;;;18.48;;
14738;SDS011;7461;52.440;13.540;2022-08-19T13:56:10;19.63;;;18.63;;
14738;SDS011;7461;52.440;13.540;2022-08-19T13:58:39;22.42;;;21.27;;
14738;SDS011;7461;52.440;13.540;2022-08-19T14:01:07;20.52;;;19.45;;
14738;SDS011;7461;52.440;13.540;2022-08-19T14:03:35;25.45;;;23.75;;
14738;SDS011;7461;52.440;13.540;2022-08-19T14:06:03;26.85;;;25.13;;
14738;SDS011;7461;52.440;13.540;2022-08-19T14:08:30;49.22;;;46.42;;
14738;SDS011;7461;52.440;13.540;2022-08-19T14:10:57;41.55;;;39.05;;
14738;SDS011;7461;52.440;13.540;2022-08-19T14:13:24;29.88;;;28.27;;
14738;SDS011;7461;52.440;13.540;2022-08-19T14:15:51;23.42;;;22.23;;
14738;SDS011;7461;52.440;13.540;2022-08-19T14:18:21;24.73;;;23.33;;
14738;SDS011;7461;52.440;13.540;2022-08-19T14:20:47;24.55;;;23.20;;
14738;SDS011;7461;52.440;13.540;2022-08-19T14:23:14;23.17;;;21.95;;
14738;SDS011;7461;52.440;13.540;2022-08-19T14:25:41;22.30;;;20.98;;
14738;SDS011;7461;52.440;13.540;2022-08-19T14:28:09;27.48;;;25.77;;
14738;SDS011;7461;52.440;13.540;2022-08-19T14:30:36;27.17;;;25.67;;